Mendocino, CA (95460)

4:41 PM PST on February 27, 2015 (GMT -0800)
Coast Highlands I | Change Station
CLOSE
Current Station
Personal Weather Station
Location: Mendocino, CA
Elevation: 49 ft
Nearby Weather Stations

Elev 49 ft 39.33 °N, 123.82 °W | Updated 13 seconds ago

Partly Cloudy
Partly Cloudy
53.8 °F
Feels Like 53.8 °F
N
6.0
Wind Variable Wind from North
Gusts 15.0 mph

Today
High -- | Low -- °F
--% Chance of Precip.
Yesterday
High -- | Low -- °F
Precip. -- in
6:50 AM 6:05 PM
Waxing Gibbous, 73% visible
Pressure 29.76 in
Visibility 10.0 miles
Clouds Mostly Cloudy 5500 ft
Dew Point 49 °F
Humidity 84%
Rainfall 0.04 in
Snow Depth Not available.
UV 1 out of 12
Pollen 3.10 out of 12
Air Quality Not available.
Flu Activity Not available.
METAR KUKI 272356Z AUTO 32012G21KT 10SM BKN055 13/04 A2977 RMK AO2 SLP078 T01330044 10150 20122 56014

More Conditions Fewer Conditions

Pressure 29.76 in
Visibility 10.0 miles
Clouds Mostly Cloudy 5500 ft
Dew Point 49 °F
Humidity 84%
Rainfall 0.04 in
Snow Depth Not available.
UV 1 out of 12
Pollen 3.10 out of 12
Air Quality Not available.
Flu Activity Not available.
METAR KUKI 272356Z AUTO 32012G21KT 10SM BKN055 13/04 A2977 RMK AO2 SLP078 T01330044 10150 20122 56014

More Conditions Fewer Conditions

10-Day Weather Forecast

Almanac

Astronomy

Feb. 27, 2015 Rise Set
Actual Time
Civil Twilight
Nautical Twilight
Astronomical Twilight
Moon
Length of Visible Light
Length of Day
Tomorrow will be .
, % of the Moon is Illuminated

Today's Extremes

State Highs State Lows

Community

WunderPhotos

Upload Photos

1,800,910 photos uploaded!

WunderBlogs® & News

Nearby

Air Quality

  Air Quality AQ Index Pollutant
Not available.

Snow Depth

Station Depth Elevation

Earthquake Activity

City Distance Mag. Time & Date
Minimum magnitude displayed is 2.5.

Coastal Water Temperatures

Place Temperature

Nearby Weather Stations